メインページ
METAR-TAF:

METAR-TAF

空港 :

カイロ, エジプト

カイロ国際空港

緯度: 30-08N, 経度: 031-24E, 海抜: 64m

現時点の気象観測

当レポートは10分前の02:00(UTC)に作成
の風 13kt
気温 15°C
湿度 39%
気圧 1012 hPa
視程10km以上
1,500メートル以下は雲なし、積乱雲なし

METAR: HECA 220200Z 19013KT CAVOK 15/01 Q1012 NOSIG

時間: 04:10 (02:10 UTC)

予報

当レポートは3時間10分前の23:00(UTC)に作成
予報は22日の 00時(UTC)から 23日の 06時(UTC)まで有効
南/南西の風 10kt、最大20ktの突風を伴う
視程10km以上
1,500メートル以下は雲なし、積乱雲なし
22日の 04時(UTC)から 22日の 15時(UTC)まで一時的に
視程: 4000m

TAF: HECA 212300Z 2200/2306 21010G20KT CAVOK TEMPO 2204/2215 4000 SA NSC

4,000以上の空港の気象観測と天気予報(METAR報とTAF報)

利用可能な観測所は地図上に黄色い丸と赤い丸で示す。

丸の上にカーソルを重ねると観測所名を参照できる。

次にクリックすると気象観測と天気予報を参照できる。

マップの切り替え:黒色「×」印の緑ボタンをクリックして拡大、「-」印の緑ボタンをクリックして縮小、緑色の三角印をクリックして隣りの地図に切り替え


METAR-TAF: